Data for 07/13/2016

Time Sea-Level Adjusted Pressure Absolute Pressure Temperature Relative Humidity Dew Point   
(mb) (inHg) (mb) (inHg) (C) (F) (%) (C) (F)
00:05 1021 30.15 850 25.1 9.6 49.2 73 5.1 41.2
00:10 1021 30.15 850 25.1 9.4 49 74 5.1 41.2
00:15 1021 30.15 850 25.1 9.3 48.7 74 5 40.9
00:20 1021 30.15 850 25.1 9.4 48.9 73 4.9 40.8
00:25 1021 30.15 850 25.1 9.4 49 74 5 41
00:30 1021 30.15 850 25.1 9.3 48.8 74 5 41
00:35 1021 30.15 850 25.1 9.1 48.4 75 4.9 40.8
00:40 1021 30.15 850 25.1 8.8 47.9 76 4.9 40.7
00:45 1021 30.15 850 25.1 8.6 47.5 77 4.8 40.6
00:50 1021 30.15 850 25.1 8.5 47.3 77 4.7 40.5
00:55 1021 30.15 850 25.1 8.7 47.6 75 4.5 40.1
01:00 1021 30.15 850 25.1 8.9 48.1 73 4.4 40
01:05 1021 30.15 850 25.1 9.1 48.4 72 4.3 39.8
01:10 1021 30.15 850 25.1 9.3 48.7 71 4.4 39.8
01:15 1021 30.15 850 25.1 9.3 48.7 71 4.3 39.8
01:20 1021 30.15 850 25.1 9.1 48.5 72 4.4 39.9
01:25 1021 30.15 850 25.1 9 48.1 73 4.3 39.8
01:30 1021 30.15 850 25.1 8.9 48.1 74 4.5 40.1
01:35 1021 30.15 850 25.1 8.8 47.8 74 4.5 40.1
01:40 1021 30.15 850 25.1 8.8 47.8 74 4.4 39.8
01:45 1021 30.15 850 25.1 8.9 48 72 4.1 39.4
01:50 1021 30.15 850 25.1 9.2 48.6 70 4.1 39.4
01:55 1021 30.15 850 25.1 9.4 48.9 70 4.3 39.8
02:00 1021 30.15 850 25.1 9.3 48.7 72 4.6 40.2
02:05 1021 30.15 850 25.1 9.1 48.4 73 4.5 40.1
02:10 1021 30.15 850 25.1 9 48.2 74 4.6 40.3
02:15 1021 30.15 850 25.1 9.1 48.4 73 4.6 40.2
02:20 1021 30.15 850 25.1 9.1 48.4 73 4.6 40.2
02:25 1021 30.15 850 25.1 9 48.2 75 4.8 40.6
02:30 1021 30.15 850 25.1 8.8 47.9 75 4.7 40.4
02:35 1021 30.15 850 25.1 8.8 47.9 75 4.6 40.3
02:40 1021 30.15 850 25.1 8.9 48 75 4.7 40.4
02:45 1021 30.15 850 25.1 8.9 47.9 75 4.6 40.3
02:50 1021 30.15 850 25.1 9 48.1 74 4.7 40.4
02:55 1021 30.15 850 25.1 9 48.3 74 4.6 40.3
03:00 1021 30.15 850 25.1 9.1 48.3 73 4.5 40.1
03:05 1021 30.15 850 25.1 9.1 48.5 74 4.8 40.6
03:10 1021 30.15 850 25.1 9 48.2 75 4.7 40.5
03:15 1021 30.15 850 25.1 8.9 48.1 74 4.6 40.3
03:20 1021 30.15 850 25.1 9 48.3 73 4.5 40.2
03:25 1021 30.15 851 25.13 9 48.3 74 4.7 40.5
03:30 1021 30.15 851 25.13 9.1 48.3 72 4.3 39.8
03:35 1021 30.15 851 25.13 9.4 48.8 71 4.4 39.9
03:40 1022 30.18 851 25.13 9.5 49.1 71 4.6 40.3
03:45 1022 30.18 851 25.13 9.5 49.1 71 4.6 40.2
03:50 1022 30.18 851 25.13 9.4 49 73 4.8 40.6
03:55 1022 30.18 851 25.13 9.4 48.9 73 4.8 40.6
04:00 1022 30.18 851 25.13 9.4 49 73 4.9 40.9
04:05 1022 30.18 851 25.13 9.4 49 74 5.1 41.1
04:10 1022 30.18 851 25.13 9.4 48.9 74 5 40.9
04:15 1022 30.18 851 25.13 9.6 49.2 73 5.1 41.1
04:20 1022 30.18 851 25.13 9.6 49.2 73 5.1 41.1
04:25 1022 30.18 851 25.13 9.6 49.3 73 5 40.9
04:30 1022 30.18 851 25.13 9.6 49.3 73 5 41
04:35 1022 30.18 851 25.13 9.5 49.1 74 5.1 41.2
04:40 1022 30.18 851 25.13 9.3 48.7 76 5.2 41.3
04:45 1022 30.18 851 25.13 9 48.2 76 5.1 41.1
04:50 1022 30.18 851 25.13 8.9 48.1 77 5.1 41.2
04:55 1022 30.18 852 25.16 9 48.2 76 5.1 41.1
05:00 1022 30.18 852 25.16 9.2 48.5 76 5.1 41.3
05:05 1022 30.18 852 25.16 9.1 48.4 76 5.1 41.1
05:10 1022 30.18 852 25.16 9.1 48.4 76 5.1 41.2
05:15 1022 30.18 852 25.16 9.3 48.8 75 5.1 41.2
05:20 1022 30.18 852 25.16 9.5 49.1 74 5.2 41.4
05:25 1023 30.21 852 25.16 9.8 49.7 73 5.3 41.5
05:30 1023 30.21 852 25.16 10 50.1 72 5.3 41.6
05:35 1023 30.21 852 25.16 10.3 50.6 71 5.4 41.6
05:40 1023 30.21 852 25.16 10.7 51.2 71 5.6 42.1
05:45 1023 30.21 852 25.16 11 51.9 70 5.8 42.5
05:50 1023 30.21 852 25.16 11 51.8 70 5.7 42.3
05:55 1023 30.21 852 25.16 11.2 52.2 69 5.7 42.2
06:00 1023 30.21 852 25.16 11.4 52.5 68 5.8 42.5
06:05 1023 30.21 852 25.16 11.4 52.5 68 5.7 42.2
06:10 1023 30.21 852 25.16 11.6 52.9 67 5.8 42.5
06:15 1023 30.21 852 25.16 12 53.6 66 5.9 42.6
06:20 1023 30.21 852 25.16 12.1 53.7 66 6 42.9
06:25 1023 30.21 852 25.16 12.1 53.8 67 6.3 43.3
06:30 1023 30.21 852 25.16 12.2 54 67 6.4 43.5
06:35 1023 30.21 852 25.16 12.2 53.9 68 6.5 43.7
06:40 1023 30.21 852 25.16 12.1 53.8 68 6.5 43.7
06:45 1023 30.21 852 25.16 12.2 53.9 69 6.6 43.9
06:50 1023 30.21 852 25.16 12.3 54.1 69 6.8 44.2
06:55 1023 30.21 852 25.16 12.5 54.5 65 6.1 43
07:00 1023 30.21 853 25.19 12.9 55.2 64 6.4 43.5
07:05 1023 30.21 853 25.19 13.2 55.7 60 5.7 42.3
07:10 1023 30.21 853 25.19 13.9 57 57 5.5 41.9
07:15 1024 30.24 853 25.19 14.4 57.8 55 5.5 41.9
07:20 1024 30.24 853 25.19 13.7 56.7 56 5.2 41.3
07:25 1024 30.24 853 25.19 13.7 56.7 56 5.2 41.4
07:30 1024 30.24 853 25.19 13.9 57 55 5 41
07:35 1024 30.24 853 25.19 14 57.2 56 5.3 41.5
07:40 1024 30.24 853 25.19 13.7 56.6 58 5.6 42.1
07:45 1024 30.24 853 25.19 13.1 55.7 60 5.5 42
07:50 1024 30.24 853 25.19 13.1 55.6 58 5 40.9
07:55 1024 30.24 853 25.19 13.1 55.6 57 4.8 40.7
08:00 1024 30.24 853 25.19 13.3 55.9 57 5 41
08:05 1024 30.24 853 25.19 13.4 56.1 57 5.1 41.2
08:10 1024 30.24 853 25.19 13.4 56.1 57 5 41
08:15 1024 30.24 853 25.19 14 57.1 55 5.1 41.2
08:20 1024 30.24 853 25.19 14.7 58.5 52 5 41.1
08:25 1024 30.24 853 25.19 15 59.1 52 5.2 41.4
08:30 1024 30.24 853 25.19 15 58.9 49 4.5 40.1
08:35 1024 30.24 853 25.19 15.7 60.2 47 4.4 39.9
08:40 1024 30.24 853 25.19 16.3 61.3 46 4.6 40.3
08:45 1024 30.24 853 25.19 15.9 60.7 48 5 41.1
08:50 1024 30.24 853 25.19 16 60.8 46 4.5 40.2
08:55 1024 30.24 853 25.19 16.4 61.5 46 5 41
09:00 1024 30.24 853 25.19 16 60.9 45 4.3 39.8
09:05 1024 30.24 853 25.19 16.4 61.6 44 4.3 39.7
09:10 1024 30.24 853 25.19 16.3 61.4 47 5.1 41.2
09:15 1024 30.24 853 25.19 15.8 60.4 46 4.4 39.9
09:20 1024 30.24 853 25.19 15.9 60.6 46 4.4 40
09:25 1024 30.24 853 25.19 15.6 60.2 48 4.7 40.4
09:30 1024 30.24 853 25.19 16 60.9 47 4.8 40.7
09:35 1024 30.24 853 25.19 16.6 61.9 44 4.3 39.7
09:40 1024 30.24 853 25.19 17.5 63.5 40 3.9 39.1
09:45 1024 30.24 853 25.19 17.5 63.4 40 4 39.2
09:50 1024 30.24 853 25.19 17.3 63.2 41 4.2 39.5
09:55 1024 30.24 853 25.19 17.1 62.8 43 4.5 40.1
10:00 1024 30.24 853 25.19 17.4 63.4 43 4.7 40.5
10:05 1024 30.24 853 25.19 17.2 63 44 4.9 40.8
10:10 1024 30.24 853 25.19 17.2 62.9 41 3.7 38.7
10:15 1024 30.24 853 25.19 18.1 64.6 40 4.5 40.1
10:20 1024 30.24 853 25.19 18.2 64.8 40 4.5 40
10:25 1024 30.24 853 25.19 18.2 64.7 41 4.8 40.7
10:30 1024 30.24 853 25.19 17.7 63.8 42 4.9 40.7
10:35 1024 30.24 853 25.19 18.3 64.9 38 3.7 38.7
10:40 1024 30.24 853 25.19 18.9 66.1 35 3.3 37.9
10:45 1024 30.24 853 25.19 18.7 65.7 38 4.3 39.7
10:50 1024 30.24 853 25.19 18.6 65.5 39 4.6 40.3
10:55 1024 30.24 853 25.19 18.3 64.9 40 4.4 39.9
11:00 1024 30.24 853 25.19 17.8 64.1 40 4.3 39.8
11:05 1024 30.24 853 25.19 17.8 64 39 3.8 38.9
11:10 1024 30.24 854 25.22 17.9 64.3 39 3.9 38.9
11:15 1024 30.24 854 25.22 17.8 64 40 4.1 39.4
11:20 1024 30.24 854 25.22 18.2 64.7 37 3.4 38.1
11:25 1024 30.24 854 25.22 18.7 65.6 38 4.2 39.5
11:30 1024 30.24 853 25.19 18.8 65.8 35 3.1 37.5
11:35 1024 30.24 853 25.19 19.6 67.2 33 2.8 37.1
11:40 1024 30.24 853 25.19 19.6 67.2 34 3.6 38.5
11:45 1024 30.24 853 25.19 19.3 66.7 32 2.5 36.5
11:50 1024 30.24 853 25.19 19.7 67.5 32 2.6 36.7
11:55 1024 30.24 853 25.19 19.6 67.4 33 2.9 37.2
12:00 1024 30.24 853 25.19 19.9 67.9 32 2.8 37.1
12:05 1024 30.24 853 25.19 20.2 68.4 32 3 37.4
12:10 1024 30.24 853 25.19 20.5 69 31 2.8 37
12:15 1024 30.24 853 25.19 20.2 68.4 30 2.5 36.4
12:20 1024 30.24 853 25.19 20.2 68.4 31 2.9 37.2
12:25 1024 30.24 853 25.19 20.2 68.3 31 2.7 36.9
12:30 1024 30.24 853 25.19 20.5 69 30 2.5 36.5
12:35 1024 30.24 853 25.19 20.8 69.4 29 2.5 36.5
12:40 1024 30.24 853 25.19 20.2 68.3 31 2.6 36.7
12:45 1024 30.24 853 25.19 19.6 67.3 31 2.1 35.8
12:50 1024 30.24 853 25.19 20 68 30 2 35.6
12:55 1024 30.24 853 25.19 20.6 69 30 2.5 36.4
13:00 1024 30.24 853 25.19 20.3 68.6 29 1.7 35
13:05 1024 30.24 853 25.19 21.3 70.3 27 1.9 35.5
13:10 1024 30.24 853 25.19 21.6 70.8 28 2.3 36.1
13:15 1024 30.24 853 25.19 21.7 71 27 2.3 36.2
13:20 1024 30.24 853 25.19 21.7 71 27 1.9 35.4
13:25 1024 30.24 853 25.19 21.1 69.9 28 1.9 35.4
13:30 1024 30.24 853 25.19 21.2 70.1 27 1.5 34.8
13:35 1024 30.24 853 25.19 21.5 70.8 26 1.5 34.6
13:40 1024 30.24 853 25.19 21.7 71.1 26 1.4 34.5
13:45 1024 30.24 853 25.19 21.3 70.3 26 1.3 34.3
13:50 1024 30.24 853 25.19 20.8 69.5 27 1.4 34.6
13:55 1024 30.24 853 25.19 21.3 70.4 26 1.1 33.9
14:00 1024 30.24 853 25.19 21.9 71.3 26 1.6 35
14:05 1024 30.24 853 25.19 22 71.5 26 1.9 35.4
14:10 1024 30.24 853 25.19 21.4 70.6 28 2.2 35.9
14:15 1024 30.24 853 25.19 21.4 70.6 27 2 35.6
14:20 1024 30.24 853 25.19 21.1 70.1 27 1.7 35.1
14:25 1024 30.24 853 25.19 21.6 70.9 26 1.6 34.9
14:30 1024 30.24 853 25.19 21 69.9 27 1.7 35
14:35 1024 30.24 853 25.19 22 71.6 26 1.9 35.4
14:40 1024 30.24 853 25.19 22.4 72.3 27 2.5 36.5
14:45 1024 30.24 853 25.19 22.2 71.9 27 2.3 36.2
14:50 1024 30.24 853 25.19 21.7 71.1 27 2 35.6
14:55 1024 30.24 853 25.19 21.2 70.1 27 1.6 34.9
15:00 1024 30.24 853 25.19 21.6 70.8 25 1.1 34.1
15:05 1024 30.24 853 25.19 22.1 71.7 25 1.6 34.9
15:10 1024 30.24 853 25.19 22.5 72.5 24 0.9 33.6
15:15 1023 30.21 853 25.19 22.7 72.8 24 1.2 34.1
15:20 1023 30.21 853 25.19 22.1 71.8 24 1 33.8
15:25 1023 30.21 853 25.19 22 71.6 25 1.4 34.5
15:30 1023 30.21 853 25.19 21.9 71.4 26 1.6 34.8
15:35 1023 30.21 853 25.19 21.9 71.4 26 1.6 34.9
15:40 1023 30.21 853 25.19 21.6 70.8 26 1.3 34.3
15:45 1023 30.21 853 25.19 21.5 70.6 26 1.1 34.1
15:50 1023 30.21 853 25.19 21.7 71 25 1.2 34.2
15:55 1023 30.21 853 25.19 21.6 70.9 25 1.2 34.1
16:00 1023 30.21 853 25.19 21.6 70.9 26 1.3 34.3
16:05 1023 30.21 853 25.19 21.6 70.8 25 0.8 33.4
16:10 1023 30.21 852 25.16 22.3 72.2 24 0.9 33.6
16:15 1023 30.21 852 25.16 22 71.7 26 1.6 34.9
16:20 1023 30.21 853 25.19 21.6 70.8 25 1.1 33.9
16:25 1023 30.21 852 25.16 21.5 70.6 25 0.6 33.1
16:30 1023 30.21 852 25.16 21.7 71.1 24 0.6 33
16:35 1023 30.21 852 25.16 21.7 71.1 25 0.7 33.3
16:40 1023 30.21 852 25.16 21.7 71.1 25 0.8 33.4
16:45 1023 30.21 852 25.16 21.9 71.3 25 1.3 34.3
16:50 1023 30.21 852 25.16 22.2 72 24 1.1 33.9
16:55 1023 30.21 852 25.16 22.6 72.6 24 0.9 33.6
17:00 1023 30.21 852 25.16 22.5 72.6 23 0.7 33.3
17:05 1023 30.21 852 25.16 22.4 72.3 23 0.5 32.8
17:10 1023 30.21 852 25.16 22.3 72.1 23 0.4 32.7
17:15 1023 30.21 852 25.16 22.3 72.1 23 0.5 32.9
17:20 1023 30.21 852 25.16 22.5 72.4 21 -0.5 31.1
17:25 1023 30.21 852 25.16 22.4 72.4 22 -0 31.9
17:30 1023 30.21 852 25.16 22.3 72.2 21 -0.6 31
17:35 1023 30.21 852 25.16 22.6 72.7 22 0.1 32.2
17:40 1023 30.21 852 25.16 22.2 72 23 0.5 32.8
17:45 1023 30.21 852 25.16 22.1 71.8 23 0.1 32.2
17:50 1023 30.21 852 25.16 22.3 72.1 22 -0.4 31.4
17:55 1023 30.21 852 25.16 22.5 72.5 21 -0.4 31.2
18:00 1023 30.21 852 25.16 22.6 72.8 22 0.3 32.5
18:05 1023 30.21 852 25.16 22.7 72.8 22 0.3 32.6
18:10 1023 30.21 852 25.16 22.4 72.3 23 0.3 32.6
18:15 1023 30.21 852 25.16 22.2 71.9 24 0.9 33.6
18:20 1023 30.21 852 25.16 21.8 71.3 23 0.2 32.4
18:25 1023 30.21 852 25.16 21.7 71 24 0.5 32.9
18:30 1023 30.21 852 25.16 21.2 70.1 25 0.4 32.8
18:35 1023 30.21 852 25.16 20.9 69.6 25 0.4 32.8
18:40 1023 30.21 852 25.16 20.8 69.4 25 0.4 32.8
18:45 1023 30.21 852 25.16 20.8 69.4 26 1 33.8
18:50 1023 30.21 852 25.16 20.7 69.2 26 0.9 33.5
18:55 1023 30.21 852 25.16 20.4 68.7 28 1.4 34.5
19:00 1023 30.21 852 25.16 20.2 68.3 26 0.4 32.7
19:05 1023 30.21 852 25.16 20.1 68.2 27 0.7 33.3
19:10 1023 30.21 852 25.16 20.2 68.3 27 0.8 33.4
19:15 1023 30.21 852 25.16 20.3 68.5 26 0.3 32.6
19:20 1023 30.21 852 25.16 20.2 68.4 28 1.3 34.3
19:25 1023 30.21 852 25.16 20.2 68.3 28 1.2 34.2
19:30 1023 30.21 852 25.16 20 68 28 1 33.8
19:35 1023 30.21 852 25.16 19.7 67.5 29 1.2 34.1
19:40 1023 30.21 852 25.16 19.7 67.4 29 1.3 34.3
19:45 1023 30.21 853 25.19 19.6 67.3 30 1.9 35.4
19:50 1023 30.21 853 25.19 19.5 67.1 29 1 33.8
19:55 1023 30.21 853 25.19 19.4 66.9 28 0.6 33
20:00 1024 30.24 853 25.19 19.3 66.7 28 0.6 33.1
20:05 1024 30.24 853 25.19 19.2 66.6 31 1.9 35.4
20:10 1024 30.24 853 25.19 19 66.2 38 4.5 40
20:15 1024 30.24 853 25.19 18.3 64.9 42 5.2 41.4
20:20 1024 30.24 853 25.19 17.5 63.5 42 4.7 40.5
20:25 1024 30.24 853 25.19 17 62.6 43 4.5 40.2
20:30 1024 30.24 853 25.19 16.7 62 46 5 41
20:35 1024 30.24 853 25.19 16.4 61.4 47 5 41
20:40 1024 30.24 853 25.19 16 60.9 48 5 41
20:45 1024 30.24 853 25.19 15.8 60.4 49 5 41.1
20:50 1024 30.24 853 25.19 15.5 60 49 5.1 41.2
20:55 1024 30.24 853 25.19 15.4 59.6 50 5 41
21:00 1024 30.24 853 25.19 15.2 59.4 50 4.9 40.9
21:05 1024 30.24 853 25.19 15 58.9 51 4.9 40.8
21:10 1024 30.24 853 25.19 14.6 58.2 52 5 41
21:15 1024 30.24 853 25.19 14.3 57.7 53 4.9 40.8
21:20 1024 30.24 854 25.22 14 57.3 55 5.2 41.4
21:25 1024 30.24 854 25.22 13.6 56.6 57 5.4 41.7
21:30 1024 30.24 854 25.22 13.5 56.2 55 4.7 40.5
21:35 1024 30.24 854 25.22 13.5 56.2 53 4.2 39.6
21:40 1025 30.27 854 25.22 13.5 56.3 53 4.2 39.5
21:45 1025 30.27 854 25.22 13.3 55.9 53 3.9 39.1
21:50 1025 30.27 854 25.22 13.3 56 52 3.8 38.9
21:55 1025 30.27 854 25.22 13.3 55.9 52 3.6 38.4
22:00 1025 30.27 854 25.22 13.1 55.6 52 3.7 38.6
22:05 1025 30.27 854 25.22 13 55.3 53 3.7 38.7
22:10 1025 30.27 854 25.22 12.9 55.2 53 3.5 38.3
22:15 1025 30.27 854 25.22 12.8 55 52 3.4 38.1
22:20 1025 30.27 854 25.22 12.8 55 52 3.3 37.9
22:25 1025 30.27 854 25.22 12.8 55 52 3.3 37.9
22:30 1025 30.27 854 25.22 12.8 55.1 51 3 37.5
22:35 1025 30.27 854 25.22 12.9 55.1 51 3.2 37.7
22:40 1025 30.27 854 25.22 12.8 55.1 50 2.8 37.1
22:45 1025 30.27 854 25.22 12.9 55.3 49 2.7 36.8
22:50 1025 30.27 854 25.22 13.2 55.7 48 2.5 36.5
22:55 1025 30.27 854 25.22 13.3 55.9 46 2 35.7
23:00 1025 30.27 854 25.22 13.5 56.3 46 2.3 36.1
23:05 1025 30.27 854 25.22 13.6 56.6 45 2.1 35.8
23:10 1025 30.27 854 25.22 13.6 56.4 51 3.6 38.4
23:15 1025 30.27 854 25.22 13 55.4 57 4.7 40.4
23:20 1025 30.27 854 25.22 12.7 54.9 56 4.1 39.4
23:25 1025 30.27 854 25.22 12.2 54 54 3.3 38
23:30 1025 30.27 854 25.22 11.9 53.3 55 3.1 37.6
23:35 1025 30.27 854 25.22 11.8 53.2 55 3.1 37.6
23:40 1025 30.27 854 25.22 11.7 53 56 3.3 37.9
23:45 1025 30.27 854 25.22 11.6 52.8 57 3.3 37.9
23:50 1025 30.27 854 25.22 11.3 52.4 58 3.5 38.3
23:55 1025 30.27 854 25.22 11 51.7 57 2.8 37
24:00 1025 30.27 854 25.22 11.3 52.3 55 2.6 36.7